Time;durP1;ratioP1;P1;durP2;ratioP2;P2;SDS_P1;SDS_P2;PMS_P1;PMS_P2;Temp;Humidity;BMP_temperature;BMP_pressure;BME280_temperature;BME280_humidity;BME280_pressure;Samples;Min_cycle;Max_cycle;Signal;HPM_P1;HPM_P2
2023/04/18 00:01:37;;;;;;;10.48;7.60;;;9.60;99.90;;;;;;5072977;28;20492;-54
2023/04/18 00:04:03;;;;;;;10.55;7.15;;;9.60;99.90;;;;;;5072418;28;20038;-55
2023/04/18 00:06:34;;;;;;;10.10;6.82;;;9.70;99.90;;;;;;5072383;28;20021;-55
2023/04/18 00:09:00;;;;;;;9.07;7.43;;;9.70;99.90;;;;;;5072154;28;20108;-56
2023/04/18 00:11:26;;;;;;;15.15;7.10;;;9.60;99.90;;;;;;5072488;28;20048;-55
2023/04/18 00:13:51;;;;;;;15.85;8.60;;;9.60;99.90;;;;;;5054280;28;20031;-55
2023/04/18 00:16:17;;;;;;;10.55;6.30;;;9.60;99.90;;;;;;5072414;28;20020;-55
2023/04/18 00:18:42;;;;;;;9.30;6.95;;;9.60;99.90;;;;;;5072404;28;20078;-51
2023/04/18 00:21:08;;;;;;;13.75;8.52;;;9.60;99.90;;;;;;5072427;28;20059;-53
2023/04/18 00:23:34;;;;;;;13.68;7.40;;;9.60;99.90;;;;;;5072335;28;20031;-54
2023/04/18 00:26:00;;;;;;;11.95;7.35;;;9.60;99.90;;;;;;5072423;28;20036;-52
2023/04/18 00:28:26;;;;;;;8.55;6.93;;;9.60;99.90;;;;;;5073404;28;20021;-53
2023/04/18 00:30:53;;;;;;;11.45;6.82;;;9.60;99.90;;;;;;5072773;28;20132;-53
2023/04/18 00:33:18;;;;;;;11.57;7.30;;;9.60;99.90;;;;;;5072859;28;20060;-51
2023/04/18 00:35:44;;;;;;;12.18;7.50;;;9.50;99.90;;;;;;5072181;28;20391;-55
2023/04/18 00:38:09;;;;;;;10.70;7.68;;;9.50;99.90;;;;;;5072493;28;20032;-54
2023/04/18 00:40:35;;;;;;;8.48;7.15;;;9.50;99.90;;;;;;5071956;28;20028;-54
2023/04/18 00:43:01;;;;;;;15.18;8.15;;;9.50;99.90;;;;;;5071970;28;20553;-54
2023/04/18 00:45:26;;;;;;;17.85;7.80;;;9.40;99.90;;;;;;5072117;28;20433;-56
2023/04/18 00:47:54;;;;;;;13.38;7.20;;;9.50;99.90;;;;;;5071740;28;20400;-53
2023/04/18 00:50:21;;;;;;;11.73;7.43;;;9.50;99.90;;;;;;5053919;28;20385;-51
2023/04/18 00:52:47;;;;;;;18.23;8.93;;;9.50;99.90;;;;;;5071826;28;20032;-54
2023/04/18 00:55:12;;;;;;;11.70;8.00;;;9.40;99.90;;;;;;5071842;28;20515;-57
2023/04/18 00:57:39;;;;;;;13.50;7.50;;;9.40;99.90;;;;;;5071424;28;20036;-56
2023/04/18 01:00:11;;;;;;;14.13;7.47;;;9.40;99.90;;;;;;5071923;28;20388;-57
2023/04/18 01:02:39;;;;;;;14.38;7.88;;;9.40;99.90;;;;;;5071863;28;20039;-53
2023/04/18 01:05:06;;;;;;;14.25;8.35;;;9.40;99.90;;;;;;5071665;28;20531;-56
2023/04/18 01:07:32;;;;;;;9.13;7.32;;;9.30;99.90;;;;;;5071494;28;20051;-56
2023/04/18 01:09:58;;;;;;;13.10;7.45;;;9.30;99.90;;;;;;5071808;28;20024;-57
2023/04/18 01:12:23;;;;;;;16.27;7.97;;;9.30;99.90;;;;;;5071976;28;20373;-56
2023/04/18 01:14:49;;;;;;;20.00;8.07;;;9.30;99.90;;;;;;5071514;28;20021;-57
2023/04/18 01:17:15;;;;;;;11.70;7.65;;;9.30;99.90;;;;;;5071571;28;20036;-53
2023/04/18 01:19:40;;;;;;;12.35;8.10;;;9.20;99.90;;;;;;5071586;28;20048;-54
2023/04/18 01:22:07;;;;;;;14.27;8.23;;;9.20;99.90;;;;;;5071311;28;20094;-56
2023/04/18 01:24:33;;;;;;;9.48;7.03;;;9.20;99.90;;;;;;5071334;28;20028;-54
2023/04/18 01:26:58;;;;;;;14.50;8.93;;;9.10;99.90;;;;;;5071254;28;20051;-56
2023/04/18 01:29:24;;;;;;;12.95;8.02;;;9.10;99.90;;;;;;5071152;28;20077;-52
2023/04/18 01:31:50;;;;;;;14.63;8.68;;;9.10;99.90;;;;;;5071293;28;20044;-55
2023/04/18 01:34:16;;;;;;;13.10;8.23;;;9.10;99.90;;;;;;5071045;28;20494;-56
2023/04/18 01:36:42;;;;;;;13.05;8.60;;;9.10;99.90;;;;;;5071023;28;20020;-55
2023/04/18 01:39:08;;;;;;;11.07;8.00;;;9.00;99.90;;;;;;5071064;28;20162;-55
2023/04/18 01:41:34;;;;;;;11.98;8.25;;;9.00;99.90;;;;;;5071236;28;20040;-56
2023/04/18 01:43:59;;;;;;;11.00;7.75;;;8.90;99.90;;;;;;5071112;28;20146;-53
2023/04/18 01:46:25;;;;;;;12.77;8.85;;;8.70;99.90;;;;;;5071641;28;20033;-55
2023/04/18 01:48:51;;;;;;;11.27;9.05;;;8.80;99.90;;;;;;5071007;28;20031;-55
2023/04/18 01:51:17;;;;;;;20.00;9.23;;;8.80;99.90;;;;;;5071610;28;20024;-53
2023/04/18 01:53:42;;;;;;;11.90;8.85;;;8.80;99.90;;;;;;5071033;28;20423;-52
2023/04/18 01:56:09;;;;;;;13.68;7.72;;;8.70;99.90;;;;;;5071137;28;20039;-54
2023/04/18 01:58:35;;;;;;;16.40;10.02;;;8.70;99.90;;;;;;5070839;28;20020;-57
2023/04/18 02:01:01;;;;;;;15.30;8.40;;;8.60;99.90;;;;;;5071298;28;20442;-55
2023/04/18 02:03:26;;;;;;;17.77;8.27;;;8.60;99.90;;;;;;5070790;28;20164;-57
2023/04/18 02:05:52;;;;;;;12.68;8.27;;;8.50;99.90;;;;;;5073736;28;20503;-56
2023/04/18 02:08:17;;;;;;;11.07;7.63;;;8.40;99.90;;;;;;5056902;28;20029;-48
2023/04/18 02:10:43;;;;;;;11.48;8.25;;;8.40;99.90;;;;;;5075943;28;20112;-54
2023/04/18 02:13:09;;;;;;;12.43;9.10;;;8.40;99.90;;;;;;5075012;28;20032;-57
2023/04/18 02:15:35;;;;;;;12.10;8.60;;;8.40;99.90;;;;;;5074990;28;20036;-56
2023/04/18 02:18:01;;;;;;;13.60;8.73;;;8.30;99.90;;;;;;5056558;28;20033;-55
2023/04/18 02:20:30;;;;;;;13.38;8.77;;;8.30;99.90;;;;;;5074768;28;20027;-56
2023/04/18 02:22:57;;;;;;;14.38;7.75;;;8.30;99.90;;;;;;5074875;28;20105;-54
2023/04/18 02:25:25;;;;;;;14.30;8.73;;;8.20;99.90;;;;;;5074567;28;20059;-55
2023/04/18 02:27:51;;;;;;;13.95;9.63;;;8.20;99.90;;;;;;5074602;28;20446;-54
2023/04/18 02:30:17;;;;;;;16.88;7.78;;;8.20;99.90;;;;;;5074239;28;20025;-55
2023/04/18 02:32:42;;;;;;;16.08;9.23;;;8.10;99.90;;;;;;5074200;28;20480;-53
2023/04/18 02:35:09;;;;;;;13.75;8.38;;;8.10;99.90;;;;;;5074244;28;20024;-55
2023/04/18 02:37:34;;;;;;;12.75;8.30;;;8.10;99.90;;;;;;5056220;28;20065;-55
2023/04/18 02:40:00;;;;;;;15.82;9.13;;;8.10;99.90;;;;;;5074319;28;20415;-54
2023/04/18 02:42:25;;;;;;;10.73;8.10;;;8.10;99.90;;;;;;5074278;28;20032;-53
2023/04/18 02:44:51;;;;;;;16.63;9.07;;;8.00;99.90;;;;;;5073933;28;20033;-53
2023/04/18 02:47:16;;;;;;;12.00;8.55;;;8.00;99.90;;;;;;5074137;28;20033;-54
2023/04/18 02:49:42;;;;;;;15.00;9.40;;;7.90;99.90;;;;;;5074006;28;20024;-55
2023/04/18 02:52:07;;;;;;;17.38;10.80;;;7.90;99.90;;;;;;5074091;28;20020;-51
2023/04/18 02:54:33;;;;;;;17.75;10.07;;;7.90;99.90;;;;;;5074117;28;20028;-54
2023/04/18 02:56:58;;;;;;;12.75;9.40;;;7.90;99.90;;;;;;5073579;28;20065;-55
2023/04/18 02:59:24;;;;;;;15.73;10.60;;;7.80;99.90;;;;;;5073561;28;20441;-57
2023/04/18 03:01:49;;;;;;;15.18;9.45;;;7.80;99.90;;;;;;5056025;28;20017;-53
2023/04/18 03:04:15;;;;;;;13.30;9.90;;;7.70;99.90;;;;;;5073690;28;20020;-55
2023/04/18 03:06:41;;;;;;;18.45;10.73;;;7.70;99.90;;;;;;5055673;28;20031;-50
2023/04/18 03:09:06;;;;;;;13.85;9.00;;;7.70;99.90;;;;;;5073587;28;20070;-53
2023/04/18 03:11:32;;;;;;;19.73;9.50;;;7.60;99.90;;;;;;5073815;28;20024;-57
2023/04/18 03:13:57;;;;;;;15.77;9.60;;;7.60;99.90;;;;;;5074742;28;20104;-55
2023/04/18 03:16:23;;;;;;;15.07;10.50;;;7.60;99.90;;;;;;5072148;28;20025;-49
2023/04/18 03:18:48;;;;;;;16.80;10.57;;;7.60;99.90;;;;;;5073958;28;20507;-55
2023/04/18 03:21:14;;;;;;;14.15;10.32;;;7.50;99.90;;;;;;5075085;28;20128;-53
2023/04/18 03:23:39;;;;;;;14.60;10.07;;;7.50;99.90;;;;;;5075933;28;20074;-52
2023/04/18 03:26:06;;;;;;;19.92;11.30;;;7.50;99.90;;;;;;5057796;28;20028;-52
2023/04/18 03:28:31;;;;;;;18.20;10.63;;;7.40;99.90;;;;;;5074097;28;20021;-52
2023/04/18 03:30:58;;;;;;;21.77;10.88;;;7.40;99.90;;;;;;5080980;28;20028;-56
2023/04/18 03:33:23;;;;;;;16.05;9.90;;;7.40;99.90;;;;;;5077123;28;20074;-51
2023/04/18 03:35:49;;;;;;;17.00;11.70;;;7.30;99.90;;;;;;5074709;28;20025;-52
2023/04/18 03:38:15;;;;;;;14.55;10.68;;;7.30;99.90;;;;;;5073761;28;20480;-56
2023/04/18 03:40:43;;;;;;;17.95;12.23;;;7.30;99.90;;;;;;5055512;28;20033;-57
2023/04/18 03:43:09;;;;;;;17.35;11.48;;;7.20;99.90;;;;;;5055977;28;20139;-55
2023/04/18 03:45:34;;;;;;;17.73;10.85;;;7.20;99.90;;;;;;5073275;28;20071;-57
2023/04/18 03:48:00;;;;;;;19.45;11.68;;;7.10;99.90;;;;;;5055405;28;20128;-51
2023/04/18 03:50:26;;;;;;;18.15;13.02;;;7.10;99.90;;;;;;5073165;28;20021;-54
2023/04/18 03:52:51;;;;;;;24.90;12.40;;;7.10;99.90;;;;;;5073482;28;20021;-51
2023/04/18 03:55:18;;;;;;;15.75;11.73;;;7.10;99.90;;;;;;5055425;28;20050;-55
2023/04/18 03:57:44;;;;;;;17.05;12.18;;;7.00;99.90;;;;;;5072944;28;20082;-54
2023/04/18 04:00:11;;;;;;;18.35;12.20;;;7.00;99.90;;;;;;5073101;28;20474;-52
2023/04/18 04:02:37;;;;;;;19.63;13.18;;;6.90;99.90;;;;;;5073177;28;20028;-56
2023/04/18 04:05:03;;;;;;;20.67;12.85;;;6.90;99.90;;;;;;5072844;28;20373;-58
2023/04/18 04:07:30;;;;;;;18.27;13.02;;;6.80;99.90;;;;;;5072677;28;20299;-56
2023/04/18 04:09:57;;;;;;;25.60;14.35;;;6.80;99.90;;;;;;5072969;28;20020;-54
2023/04/18 04:12:22;;;;;;;17.50;12.95;;;6.80;99.90;;;;;;5073238;28;20488;-54
2023/04/18 04:14:48;;;;;;;18.95;13.93;;;6.80;99.90;;;;;;5073090;28;20086;-55
2023/04/18 04:17:14;;;;;;;19.17;14.57;;;6.80;99.90;;;;;;5055365;28;20496;-58
2023/04/18 04:19:39;;;;;;;20.38;14.23;;;6.80;99.90;;;;;;5074034;28;20090;-56
2023/04/18 04:22:05;;;;;;;23.13;15.82;;;6.80;99.90;;;;;;5075593;28;20016;-55
2023/04/18 04:24:32;;;;;;;20.55;15.32;;;6.80;99.90;;;;;;5074178;28;20024;-54
2023/04/18 04:26:58;;;;;;;28.67;17.33;;;6.80;99.90;;;;;;5056448;28;20475;-56
2023/04/18 04:29:25;;;;;;;27.48;15.32;;;6.90;99.90;;;;;;5056670;28;20032;-55
2023/04/18 04:31:50;;;;;;;22.50;15.38;;;6.90;99.90;;;;;;5073168;28;20462;-54
2023/04/18 04:34:16;;;;;;;25.30;17.67;;;6.80;99.90;;;;;;5074521;28;20052;-54
2023/04/18 04:36:42;;;;;;;32.17;17.75;;;6.90;99.90;;;;;;5074207;28;20034;-56
2023/04/18 04:39:08;;;;;;;24.95;15.45;;;6.90;99.90;;;;;;5073254;28;20478;-54
2023/04/18 04:41:36;;;;;;;24.25;16.00;;;6.90;99.90;;;;;;5072520;28;20052;-57
2023/04/18 04:44:03;;;;;;;27.65;15.57;;;6.90;99.90;;;;;;5073487;28;20207;-57
2023/04/18 04:46:29;;;;;;;23.10;16.08;;;6.90;99.90;;;;;;5072491;28;20028;-58
2023/04/18 04:48:55;;;;;;;26.08;17.33;;;6.90;99.90;;;;;;5071940;28;20059;-56
2023/04/18 04:51:20;;;;;;;31.95;17.27;;;7.00;99.90;;;;;;5072323;28;20428;-56
2023/04/18 04:53:46;;;;;;;21.38;14.50;;;7.10;99.90;;;;;;5072024;28;20073;-52
2023/04/18 04:56:12;;;;;;;22.20;16.40;;;7.00;99.90;;;;;;5072122;28;20112;-58
2023/04/18 04:58:37;;;;;;;22.60;15.25;;;7.00;99.90;;;;;;5053650;28;20024;-55
2023/04/18 05:01:03;;;;;;;24.67;15.48;;;7.00;99.90;;;;;;5072003;28;20039;-52
2023/04/18 05:03:28;;;;;;;24.00;16.42;;;7.00;99.90;;;;;;5071627;28;20025;-54
2023/04/18 05:05:54;;;;;;;26.10;15.80;;;7.20;99.90;;;;;;5072083;28;20070;-54
2023/04/18 05:08:19;;;;;;;20.55;16.08;;;7.40;99.90;;;;;;5071967;28;20031;-54
2023/04/18 05:10:46;;;;;;;20.17;15.07;;;7.70;99.90;;;;;;5071858;28;20027;-56
2023/04/18 05:13:11;;;;;;;23.08;15.35;;;7.80;99.90;;;;;;5071924;28;20577;-57
2023/04/18 05:15:38;;;;;;;22.63;15.45;;;8.20;99.90;;;;;;5071566;28;20025;-53
2023/04/18 05:18:04;;;;;;;21.08;15.00;;;8.30;99.90;;;;;;5108604;22;20044;-50
2023/04/18 05:20:30;;;;;;;26.02;15.02;;;8.20;99.90;;;;;;5091430;28;20017;-55
2023/04/18 05:22:56;;;;;;;25.08;15.10;;;8.10;99.90;;;;;;5091701;28;20514;-51
2023/04/18 05:25:21;;;;;;;26.08;15.52;;;8.00;99.90;;;;;;5091655;28;20416;-51
2023/04/18 05:27:47;;;;;;;28.00;15.15;;;7.80;99.90;;;;;;5091382;28;20407;-53
2023/04/18 05:30:12;;;;;;;20.52;14.80;;;7.70;99.90;;;;;;5091352;28;20544;-55
2023/04/18 05:32:38;;;;;;;22.83;15.02;;;7.70;99.90;;;;;;5091491;28;20539;-50
2023/04/18 05:35:05;;;;;;;18.55;14.68;;;7.50;99.90;;;;;;5091255;28;20024;-53
2023/04/18 05:37:31;;;;;;;21.65;14.43;;;7.50;99.90;;;;;;5073075;28;20081;-52
2023/04/18 05:39:56;;;;;;;20.88;15.18;;;7.50;99.90;;;;;;5074980;28;20495;-49
2023/04/18 05:42:22;;;;;;;19.25;14.48;;;7.50;99.90;;;;;;5095806;28;20028;-51
2023/04/18 05:44:47;;;;;;;24.83;14.57;;;7.60;99.90;;;;;;5095135;28;20024;-49
2023/04/18 05:47:13;;;;;;;22.20;14.50;;;7.60;99.90;;;;;;5095065;28;20115;-50
2023/04/18 05:49:38;;;;;;;18.98;13.68;;;7.70;99.90;;;;;;5095222;28;20028;-53
2023/04/18 05:52:04;;;;;;;20.13;13.77;;;7.60;99.90;;;;;;5095117;28;20365;-51
2023/04/18 05:54:29;;;;;;;20.85;14.60;;;7.70;99.90;;;;;;5076888;28;20021;-55
2023/04/18 05:56:56;;;;;;;23.08;13.85;;;7.80;99.90;;;;;;5094939;28;20027;-52
2023/04/18 05:59:21;;;;;;;22.70;14.48;;;7.80;99.90;;;;;;5094653;28;20123;-54
2023/04/18 06:01:48;;;;;;;24.40;13.65;;;7.80;99.90;;;;;;5095509;28;20099;-55
2023/04/18 06:04:14;;;;;;;17.60;13.32;;;7.80;99.90;;;;;;5095228;28;20020;-50
2023/04/18 06:06:39;;;;;;;18.17;13.07;;;7.80;99.90;;;;;;5095334;28;20027;-50
2023/04/18 06:09:05;;;;;;;19.55;13.07;;;7.90;99.90;;;;;;5095830;28;20099;-51
2023/04/18 06:11:34;;;;;;;19.80;12.75;;;8.00;99.90;;;;;;5095420;28;20047;-51
2023/04/18 06:14:00;;;;;;;22.90;13.48;;;8.10;99.90;;;;;;5095715;28;20536;-49
2023/04/18 06:16:25;;;;;;;21.50;13.13;;;8.20;99.90;;;;;;5095407;28;20028;-51
2023/04/18 06:18:51;;;;;;;17.88;12.57;;;8.30;99.90;;;;;;5095894;28;20031;-51
2023/04/18 06:21:16;;;;;;;23.08;13.15;;;8.40;99.90;;;;;;5095198;28;20020;-51
2023/04/18 06:23:42;;;;;;;17.30;11.82;;;8.50;99.90;;;;;;5094885;28;20036;-52
2023/04/18 06:26:08;;;;;;;17.40;11.90;;;8.40;99.90;;;;;;5094878;28;20028;-50
2023/04/18 06:28:33;;;;;;;19.17;12.65;;;8.40;99.90;;;;;;5076243;28;20028;-50
2023/04/18 06:30:59;;;;;;;19.73;12.35;;;8.40;99.90;;;;;;5094830;28;20020;-53
2023/04/18 06:33:25;;;;;;;17.67;12.57;;;8.40;99.90;;;;;;5094575;28;20020;-55
2023/04/18 06:35:51;;;;;;;16.02;10.98;;;8.40;99.90;;;;;;5095024;28;20020;-49
2023/04/18 06:38:17;;;;;;;18.70;12.43;;;8.40;99.90;;;;;;5094349;28;20103;-51
2023/04/18 06:40:42;;;;;;;17.00;12.52;;;8.40;99.90;;;;;;5094330;28;20452;-54
2023/04/18 06:43:08;;;;;;;15.73;11.55;;;8.50;99.90;;;;;;5094707;28;20028;-54
2023/04/18 06:45:34;;;;;;;21.95;12.77;;;8.50;99.90;;;;;;5076228;28;20032;-52
2023/04/18 06:48:02;;;;;;;18.65;12.25;;;8.50;99.90;;;;;;5094322;28;20055;-56
2023/04/18 06:50:28;;;;;;;13.45;10.70;;;8.50;99.90;;;;;;5094024;28;20104;-51
2023/04/18 06:52:54;;;;;;;21.15;12.75;;;8.50;99.90;;;;;;5094297;28;20024;-54
2023/04/18 06:55:20;;;;;;;15.98;11.27;;;8.60;99.90;;;;;;5076117;28;20028;-55
2023/04/18 06:57:46;;;;;;;18.63;11.43;;;8.60;99.90;;;;;;5093624;28;20056;-52
2023/04/18 07:00:12;;;;;;;14.75;10.95;;;8.50;99.90;;;;;;5093812;28;20706;-53
2023/04/18 07:02:38;;;;;;;15.90;11.13;;;8.60;99.90;;;;;;5075534;28;20035;-50
2023/04/18 07:05:04;;;;;;;15.73;10.75;;;8.70;99.90;;;;;;5093675;28;20039;-57
2023/04/18 07:07:31;;;;;;;15.55;10.93;;;8.70;99.90;;;;;;5093524;28;20531;-55
2023/04/18 07:09:57;;;;;;;14.18;11.02;;;8.70;99.90;;;;;;5093667;28;20028;-53
2023/04/18 07:12:23;;;;;;;16.20;10.32;;;8.70;99.90;;;;;;5093972;28;20028;-52
2023/04/18 07:14:48;;;;;;;17.75;11.43;;;8.70;99.90;;;;;;5093614;28;20027;-54
2023/04/18 07:17:14;;;;;;;11.00;9.43;;;8.70;99.90;;;;;;5093491;28;20056;-52
2023/04/18 07:19:40;;;;;;;13.60;9.93;;;8.60;99.90;;;;;;5093435;28;20020;-51
2023/04/18 07:22:05;;;;;;;13.48;10.63;;;8.70;99.90;;;;;;5093482;28;20020;-54
2023/04/18 07:24:31;;;;;;;15.43;10.43;;;8.70;99.90;;;;;;5093265;28;20375;-51
2023/04/18 07:26:56;;;;;;;14.52;10.30;;;8.80;99.90;;;;;;5075112;28;20572;-50
2023/04/18 07:29:22;;;;;;;15.85;10.63;;;8.80;99.90;;;;;;5093221;28;20098;-54
2023/04/18 07:31:48;;;;;;;14.82;11.40;;;8.80;99.90;;;;;;5093394;28;20031;-52
2023/04/18 07:34:13;;;;;;;13.57;10.55;;;8.90;99.90;;;;;;5093137;28;20050;-54
2023/04/18 07:36:40;;;;;;;15.00;11.38;;;8.80;99.90;;;;;;5075353;28;20214;-52
2023/04/18 07:39:06;;;;;;;14.57;10.43;;;8.90;99.90;;;;;;5093698;28;20430;-54
2023/04/18 07:41:32;;;;;;;14.82;10.73;;;9.00;99.90;;;;;;5093335;28;20142;-59
2023/04/18 07:43:57;;;;;;;15.57;10.65;;;9.00;99.90;;;;;;5092995;28;20062;-56
2023/04/18 07:46:23;;;;;;;14.20;10.80;;;9.00;99.90;;;;;;5093229;28;20027;-52
2023/04/18 07:48:49;;;;;;;14.35;11.07;;;9.10;99.90;;;;;;5092857;28;20028;-54
2023/04/18 07:51:15;;;;;;;14.18;10.75;;;9.20;99.90;;;;;;5075326;28;20027;-51
2023/04/18 07:53:42;;;;;;;17.67;10.57;;;9.20;99.90;;;;;;5089589;28;20032;-53
2023/04/18 07:56:07;;;;;;;14.75;10.77;;;9.20;99.90;;;;;;5083758;28;20020;-51
2023/04/18 07:58:33;;;;;;;12.57;10.30;;;9.30;99.90;;;;;;5091004;28;20390;-56
2023/04/18 08:00:59;;;;;;;13.00;10.35;;;9.30;99.90;;;;;;5078109;28;20024;-55
2023/04/18 08:03:26;;;;;;;12.25;9.60;;;9.30;99.90;;;;;;5072108;28;20090;-52
2023/04/18 08:05:52;;;;;;;13.68;10.82;;;9.20;99.90;;;;;;5072594;28;20025;-52
2023/04/18 08:08:17;;;;;;;12.38;9.88;;;9.30;99.90;;;;;;5055385;28;20400;-48
2023/04/18 08:10:43;;;;;;;18.15;11.13;;;9.40;99.90;;;;;;5085176;28;20391;-50
2023/04/18 08:13:08;;;;;;;14.57;10.40;;;9.30;99.90;;;;;;5091669;28;20020;-53
2023/04/18 08:15:34;;;;;;;14.68;10.52;;;9.40;99.90;;;;;;5074009;28;20553;-50
2023/04/18 08:18:00;;;;;;;13.85;9.45;;;9.40;99.90;;;;;;5091908;28;20040;-48
2023/04/18 08:20:25;;;;;;;11.48;9.50;;;9.30;99.90;;;;;;5092240;28;20035;-48
2023/04/18 08:22:51;;;;;;;14.55;10.55;;;9.30;99.90;;;;;;5092096;28;20028;-55
2023/04/18 08:25:16;;;;;;;14.77;10.52;;;9.40;99.90;;;;;;5091856;28;20020;-49
2023/04/18 08:27:42;;;;;;;13.00;10.25;;;9.50;99.90;;;;;;5092173;28;20036;-48
2023/04/18 08:30:09;;;;;;;21.95;11.15;;;9.50;99.90;;;;;;5092401;28;20020;-52
2023/04/18 08:32:37;;;;;;;13.85;10.73;;;9.60;99.90;;;;;;5073952;28;20024;-49
2023/04/18 08:35:03;;;;;;;15.60;10.88;;;9.70;99.90;;;;;;5091853;28;20016;-52
2023/04/18 08:37:29;;;;;;;17.52;10.75;;;9.70;99.90;;;;;;5073883;28;20030;-49
2023/04/18 08:39:55;;;;;;;13.93;10.25;;;9.80;99.90;;;;;;5091953;28;20429;-51
2023/04/18 08:42:22;;;;;;;19.48;10.63;;;9.90;99.90;;;;;;5092355;28;20039;-50
2023/04/18 08:44:48;;;;;;;15.13;10.07;;;9.90;99.90;;;;;;5091861;28;20102;-47
2023/04/18 08:47:15;;;;;;;15.23;10.18;;;10.00;99.90;;;;;;5091768;28;20046;-50
2023/04/18 08:49:41;;;;;;;14.45;10.90;;;9.90;99.90;;;;;;5091758;28;20099;-48
2023/04/18 08:52:13;;;;;;;16.83;9.90;;;9.90;99.90;;;;;;5091293;28;20097;-49
2023/04/18 08:54:45;;;;;;;11.30;9.88;;;10.10;99.90;;;;;;5090584;28;20514;-46
2023/04/18 08:57:15;;;;;;;13.60;10.32;;;10.40;99.90;;;;;;5053449;28;20070;-51
2023/04/18 08:59:44;;;;;;;15.20;9.88;;;10.70;99.90;;;;;;5079196;28;20495;-48
2023/04/18 09:02:10;;;;;;;17.08;9.60;;;10.80;99.90;;;;;;5091367;28;20020;-47
2023/04/18 09:04:38;;;;;;;15.60;9.77;;;10.90;99.90;;;;;;5073606;28;20031;-47
2023/04/18 09:07:10;;;;;;;14.82;9.73;;;10.90;99.90;;;;;;5092224;28;20016;-47
2023/04/18 09:09:47;;;;;;;12.57;9.15;;;10.80;99.90;;;;;;5079316;28;20028;-46
2023/04/18 09:12:17;;;;;;;12.43;8.70;;;10.70;99.90;;;;;;5072515;28;20081;-48
2023/04/18 09:14:47;;;;;;;13.52;9.63;;;10.80;99.90;;;;;;5071569;28;20440;-46
2023/04/18 09:17:17;;;;;;;13.63;9.10;;;10.70;99.90;;;;;;5053376;28;20032;-47
2023/04/18 09:19:49;;;;;;;12.15;8.82;;;10.80;99.90;;;;;;5071329;28;20017;-47
2023/04/18 09:22:15;;;;;;;15.23;9.57;;;11.00;99.90;;;;;;5072523;28;20028;-50
2023/04/18 09:24:54;;;;;;;13.45;8.38;;;11.10;99.90;;;;;;5075108;28;20032;-51
2023/04/18 09:27:21;;;;;;;11.65;8.70;;;11.30;99.90;;;;;;5089112;28;20031;-51
2023/04/18 09:29:50;;;;;;;11.18;8.77;;;11.60;99.90;;;;;;5096627;28;20013;-48
2023/04/18 09:32:24;;;;;;;13.10;8.85;;;12.40;99.90;;;;;;5092083;28;20494;-49
2023/04/18 09:35:01;;;;;;;11.82;7.97;;;13.00;99.90;;;;;;5091854;28;20170;-50
2023/04/18 09:37:28;;;;;;;11.63;8.73;;;13.30;99.90;;;;;;5091605;28;20020;-48
2023/04/18 09:39:54;;;;;;;9.13;7.70;;;13.60;99.90;;;;;;5091311;28;20031;-51
2023/04/18 09:42:20;;;;;;;10.68;8.23;;;13.70;99.90;;;;;;5091510;28;20027;-50
2023/04/18 09:44:58;;;;;;;11.65;8.23;;;13.50;99.90;;;;;;5092346;28;20028;-47
2023/04/18 09:47:25;;;;;;;9.50;7.22;;;13.20;99.90;;;;;;5091547;28;20024;-50
2023/04/18 09:49:51;;;;;;;11.77;7.47;;;13.20;99.90;;;;;;5091408;28;20024;-50
2023/04/18 09:52:19;;;;;;;11.40;8.65;;;13.50;99.90;;;;;;5091400;28;20081;-48
2023/04/18 09:54:47;;;;;;;8.73;7.40;;;13.90;99.90;;;;;;5073222;28;20031;-48
2023/04/18 09:57:14;;;;;;;10.65;8.23;;;14.20;99.90;;;;;;5091521;28;20113;-48
2023/04/18 09:59:53;;;;;;;9.68;7.90;;;14.00;99.90;;;;;;5091327;28;20044;-47
2023/04/18 10:02:21;;;;;;;11.38;7.50;;;13.80;99.90;;;;;;5090743;28;20035;-48
2023/04/18 10:04:48;;;;;;;8.38;7.38;;;13.70;99.90;;;;;;5090732;28;20024;-50
2023/04/18 10:07:15;;;;;;;8.48;7.50;;;13.60;99.90;;;;;;5090463;28;20031;-49
2023/04/18 10:09:44;;;;;;;9.82;7.53;;;13.70;99.90;;;;;;5091167;28;20018;-52
2023/04/18 10:12:13;;;;;;;10.57;7.40;;;14.00;99.90;;;;;;5091427;28;20032;-49
2023/04/18 10:14:41;;;;;;;10.63;7.57;;;14.20;99.90;;;;;;5090940;28;20476;-47
2023/04/18 10:17:08;;;;;;;8.55;7.25;;;14.30;99.90;;;;;;5072093;28;20365;-51
2023/04/18 10:19:34;;;;;;;9.65;7.50;;;14.50;99.90;;;;;;5090623;28;20059;-53
2023/04/18 10:22:00;;;;;;;71.90;42.40;;;14.70;99.90;;;;;;5072570;28;20024;-55
2023/04/18 10:24:55;;;;;;;9.77;7.45;;;14.50;99.90;;;;;;5073877;28;20028;-50
2023/04/18 10:28:00;;;;;;;7.07;6.32;;;14.20;99.90;;;;;;5097901;28;20027;-49
2023/04/18 10:30:41;;;;;;;9.20;7.25;;;14.00;99.90;;;;;;4990314;28;20711;-51
2023/04/18 10:33:34;;;;;;;7.82;6.82;;;13.90;99.90;;;;;;4980852;28;20042;-52
2023/04/18 10:36:08;;;;;;;7.85;6.93;;;14.00;99.90;;;;;;5057391;28;20040;-52
2023/04/18 10:38:43;;;;;;;9.82;7.03;;;14.00;99.90;;;;;;5095103;28;20059;-50
2023/04/18 10:41:16;;;;;;;10.35;7.00;;;14.20;99.90;;;;;;5080130;28;20479;-49
2023/04/18 10:44:07;;;;;;;7.07;6.22;;;14.20;99.90;;;;;;5065900;28;20042;-46
2023/04/18 10:46:41;;;;;;;9.00;6.72;;;14.20;99.90;;;;;;5093936;28;20468;-47
2023/04/18 10:49:20;;;;;;;10.93;6.60;;;14.00;99.90;;;;;;5088093;28;20077;-48
2023/04/18 10:51:50;;;;;;;8.15;7.30;;;13.90;99.90;;;;;;5094212;28;20433;-51
2023/04/18 10:54:45;;;;;;;13.23;5.97;;;13.90;99.90;;;;;;5093844;28;20440;-52
2023/04/18 10:57:12;;;;;;;9.35;6.32;;;14.10;99.90;;;;;;5088150;28;20027;-51
2023/04/18 10:59:41;;;;;;;8.68;6.38;;;14.30;99.90;;;;;;5092983;28;20024;-51
2023/04/18 11:02:28;;;;;;;6.43;5.78;;;14.30;99.90;;;;;;5070874;28;20027;-49
2023/04/18 11:04:57;;;;;;;7.75;6.53;;;14.50;99.90;;;;;;5075967;28;20116;-50
2023/04/18 11:07:47;;;;;;;7.07;5.90;;;14.50;99.90;;;;;;5093831;28;20090;-54
2023/04/18 11:10:16;;;;;;;7.15;5.30;;;14.60;99.90;;;;;;5082748;28;20408;-54
2023/04/18 11:12:42;;;;;;;7.72;6.70;;;14.60;99.90;;;;;;5093443;28;20064;-50
2023/04/18 11:15:22;;;;;;;10.63;7.75;;;14.50;99.90;;;;;;5093543;28;20083;-51
2023/04/18 11:18:01;;;;;;;6.47;5.60;;;14.40;99.90;;;;;;5093329;28;20062;-50
2023/04/18 11:20:35;;;;;;;7.05;6.15;;;14.50;99.90;;;;;;5093371;28;20024;-54
2023/04/18 11:23:01;;;;;;;7.45;6.07;;;14.60;99.90;;;;;;5075218;28;20069;-54
2023/04/18 11:25:29;;;;;;;7.43;5.90;;;14.70;99.90;;;;;;5093230;28;20118;-55
2023/04/18 11:27:58;;;;;;;5.75;5.18;;;14.70;99.90;;;;;;5093134;28;20463;-51
2023/04/18 11:30:24;;;;;;;5.53;4.90;;;14.80;99.90;;;;;;5092906;28;20028;-49
2023/04/18 11:32:50;;;;;;;7.10;5.40;;;15.10;99.90;;;;;;5093190;28;20502;-50
2023/04/18 11:35:16;;;;;;;9.15;5.95;;;15.30;99.90;;;;;;5092916;28;20048;-56
2023/04/18 11:37:44;;;;;;;6.03;5.43;;;15.30;99.90;;;;;;5091845;28;20030;-53
2023/04/18 11:40:11;;;;;;;7.35;5.75;;;15.20;99.90;;;;;;5092884;28;20073;-50
2023/04/18 11:42:38;;;;;;;8.18;5.22;;;15.00;99.90;;;;;;5092985;28;20020;-51
2023/04/18 11:45:11;;;;;;;7.18;5.45;;;14.90;99.90;;;;;;5092307;28;20031;-51
2023/04/18 11:47:38;;;;;;;6.18;5.30;;;14.80;99.90;;;;;;5092532;28;20020;-50
2023/04/18 11:50:06;;;;;;;7.32;5.45;;;15.00;99.90;;;;;;5092583;28;20028;-53
2023/04/18 11:52:33;;;;;;;6.00;5.30;;;15.10;99.90;;;;;;5092767;28;20056;-50
2023/04/18 11:55:17;;;;;;;6.78;5.40;;;15.20;99.90;;;;;;5092675;28;20456;-49
2023/04/18 11:57:58;;;;;;;5.43;4.93;;;15.20;99.90;;;;;;5092694;28;20020;-55
2023/04/18 12:00:30;;;;;;;6.45;5.22;;;15.20;99.90;;;;;;5074443;28;20032;-51
2023/04/18 12:02:57;;;;;;;5.45;4.93;;;15.20;99.90;;;;;;5092626;28;20035;-51
2023/04/18 12:05:28;;;;;;;5.30;4.30;;;15.20;99.90;;;;;;5092593;28;20042;-53
2023/04/18 12:07:54;;;;;;;5.47;4.47;;;15.20;99.90;;;;;;5092638;28;20380;-51
2023/04/18 12:10:28;;;;;;;5.97;4.72;;;15.20;99.90;;;;;;5092025;28;20372;-49
2023/04/18 12:12:57;;;;;;;4.85;4.38;;;15.20;99.90;;;;;;5092149;28;20027;-52
2023/04/18 12:15:25;;;;;;;6.75;4.28;;;15.30;99.90;;;;;;5092473;28;20016;-50
2023/04/18 12:17:55;;;;;;;4.68;4.15;;;15.30;99.90;;;;;;5092328;28;20032;-53
2023/04/18 12:20:23;;;;;;;5.13;4.63;;;15.30;99.90;;;;;;5092377;28;20024;-50
2023/04/18 12:22:49;;;;;;;6.25;4.28;;;15.20;99.90;;;;;;5092174;28;20032;-49
2023/04/18 12:27:57;;;;;;;5.15;4.18;;;15.30;99.90;;;;;;5109114;22;20418;-51
2023/04/18 12:30:26;;;;;;;5.13;4.07;;;15.20;99.90;;;;;;5091767;28;20414;-54
2023/04/18 12:32:58;;;;;;;11.23;3.63;;;15.30;99.90;;;;;;5074053;28;20107;-52
2023/04/18 12:35:25;;;;;;;5.70;3.50;;;15.40;99.90;;;;;;5091977;28;20058;-54
2023/04/18 12:37:52;;;;;;;4.25;3.85;;;15.30;99.90;;;;;;5092328;28;20031;-56
2023/04/18 12:40:18;;;;;;;6.03;3.85;;;15.30;99.90;;;;;;5092311;28;20111;-56
2023/04/18 12:42:45;;;;;;;3.20;3.00;;;15.20;99.90;;;;;;5092317;28;20028;-58
2023/04/18 12:45:12;;;;;;;5.15;4.50;;;15.20;99.90;;;;;;5073667;28;20043;-54